createdAt,value
2023-03-21T00:09:40.811Z,23.50
2023-03-21T00:13:11.089Z,24.00
2023-03-21T00:16:49.946Z,24.00
2023-03-21T00:20:36.962Z,23.80
2023-03-21T00:24:08.186Z,21.10
2023-03-21T00:49:26.836Z,24.60
2023-03-21T00:53:04.984Z,20.00
2023-03-21T00:56:42.175Z,17.80
2023-03-21T01:15:56.876Z,18.80
2023-03-21T01:19:52.646Z,18.80
2023-03-21T01:23:28.764Z,18.30
2023-03-21T01:27:34.522Z,14.20
2023-03-21T01:31:05.194Z,16.20
2023-03-21T01:34:46.747Z,16.00
2023-03-21T02:14:08.008Z,15.50
2023-03-21T02:17:49.927Z,14.70
2023-03-21T02:45:28.507Z,15.80
2023-03-21T02:49:08.011Z,15.10
2023-03-21T02:55:58.926Z,16.30
2023-03-21T02:59:13.098Z,15.70
2023-03-21T03:05:42.898Z,15.10
2023-03-21T03:09:17.572Z,13.30
2023-03-21T03:12:58.958Z,13.20
2023-03-21T03:16:37.747Z,14.70
2023-03-21T03:20:16.857Z,13.80
2023-03-21T03:46:18.433Z,16.70
2023-03-21T03:49:54.358Z,15.20
2023-03-21T03:53:16.388Z,14.40
2023-03-21T03:56:55.133Z,16.80
2023-03-21T04:09:45.248Z,17.40
2023-03-21T04:13:14.742Z,17.60
2023-03-21T04:16:46.186Z,18.40
2023-03-21T04:20:36.084Z,20.20
2023-03-21T04:24:14.329Z,20.00
2023-03-21T04:27:58.448Z,17.30
2023-03-21T04:31:36.116Z,17.80
2023-03-21T04:35:09.020Z,16.20
2023-03-21T04:57:58.636Z,16.80
2023-03-21T05:01:46.114Z,16.10
2023-03-21T05:28:38.426Z,16.40
2023-03-21T05:32:23.629Z,18.60
2023-03-21T05:35:56.023Z,13.50
2023-03-21T05:50:56.425Z,17.80
2023-03-21T05:54:41.983Z,15.40
2023-03-21T05:58:20.946Z,19.60
2023-03-21T06:34:54.212Z,16.20
2023-03-21T06:50:29.272Z,15.50
2023-03-21T06:54:07.898Z,16.10
2023-03-21T06:57:57.223Z,16.40
2023-03-21T07:01:36.673Z,15.40
2023-03-21T07:05:16.513Z,14.60
2023-03-21T07:12:32.014Z,18.00
2023-03-21T07:31:44.897Z,21.20
2023-03-21T07:35:27.133Z,17.60
2023-03-21T07:38:31.891Z,19.40
2023-03-21T07:45:59.790Z,18.20
2023-03-21T07:49:29.378Z,19.20
2023-03-21T07:53:01.970Z,16.80
2023-03-21T07:56:23.949Z,19.30
2023-03-21T07:59:59.749Z,18.50
2023-03-21T08:03:31.315Z,15.70
2023-03-21T08:25:58.633Z,14.70
2023-03-21T08:33:39.389Z,15.60
2023-03-21T08:55:39.571Z,14.60
2023-03-21T08:59:11.113Z,11.40
2023-03-21T09:02:50.280Z,12.10
2023-03-21T09:06:27.053Z,13.40
2023-03-21T09:28:21.972Z,15.10
2023-03-21T09:32:01.199Z,14.50
2023-03-21T09:35:37.714Z,14.20
2023-03-21T09:59:03.341Z,15.00
2023-03-21T10:02:39.488Z,14.50
2023-03-21T10:06:19.295Z,13.10
2023-03-21T10:09:48.457Z,13.50
2023-03-21T10:13:20.850Z,13.40
2023-03-21T10:16:58.096Z,12.60
2023-03-21T10:20:44.369Z,14.20
2023-03-21T11:18:40.592Z,12.80
2023-03-21T11:22:13.654Z,12.50
2023-03-21T11:29:01.140Z,13.40
2023-03-21T11:32:44.090Z,16.70
2023-03-21T11:36:14.021Z,14.90
2023-03-21T11:39:44.232Z,15.20
2023-03-21T11:43:26.674Z,16.20
2023-03-21T11:47:03.654Z,15.10
2023-03-21T11:50:33.969Z,14.90
2023-03-21T11:54:21.059Z,15.70
2023-03-21T11:58:13.546Z,15.40
2023-03-21T12:02:06.089Z,15.70
2023-03-21T12:05:34.789Z,14.50
2023-03-21T12:09:25.876Z,15.40
2023-03-21T12:12:53.514Z,16.40
2023-03-21T12:16:23.562Z,15.10
2023-03-21T12:20:08.752Z,18.00
2023-03-21T12:34:49.427Z,15.30
2023-03-21T12:38:37.478Z,14.90
2023-03-21T12:49:00.479Z,14.70
2023-03-21T13:31:57.356Z,16.30
2023-03-21T13:35:35.730Z,17.40
2023-03-21T13:39:21.355Z,14.80
2023-03-21T13:42:53.139Z,13.50
2023-03-21T13:46:28.948Z,16.50
2023-03-21T14:30:20.800Z,16.90
2023-03-21T14:33:53.262Z,19.10
2023-03-21T14:37:22.930Z,15.80
2023-03-21T14:41:04.313Z,15.40
2023-03-21T14:44:55.994Z,17.60
2023-03-21T14:48:36.510Z,16.60
2023-03-21T14:52:06.865Z,17.90
2023-03-21T15:29:06.448Z,22.70
2023-03-21T15:32:30.424Z,23.80
2023-03-21T15:36:23.817Z,25.50
2023-03-21T15:40:00.639Z,27.90
2023-03-21T15:43:51.270Z,24.40
2023-03-21T16:09:53.081Z,25.60
2023-03-21T16:13:41.264Z,23.90
2023-03-21T16:21:17.686Z,25.00
2023-03-21T16:43:10.277Z,45.20
2023-03-21T16:46:54.756Z,30.40
2023-03-21T16:50:29.154Z,27.80
2023-03-21T16:54:02.793Z,31.80
2023-03-21T16:57:44.120Z,28.10
2023-03-21T17:15:55.363Z,60.70
2023-03-21T17:19:32.639Z,42.40
2023-03-21T17:23:04.287Z,57.20
2023-03-21T17:26:36.569Z,31.50
2023-03-21T17:30:09.445Z,25.70
2023-03-21T18:12:40.807Z,43.40
2023-03-21T18:16:21.913Z,40.10
2023-03-21T18:19:53.860Z,34.40
2023-03-21T18:23:26.353Z,39.90
2023-03-21T18:26:53.968Z,30.90
2023-03-21T18:30:56.499Z,34.20
2023-03-21T18:34:28.608Z,34.50
2023-03-21T18:38:05.281Z,30.20
2023-03-21T18:41:30.187Z,36.70
2023-03-21T19:04:14.430Z,35.30
2023-03-21T19:07:40.337Z,42.90
2023-03-21T19:11:19.519Z,47.90
2023-03-21T19:14:53.357Z,43.30
2023-03-21T19:18:46.094Z,60.60
2023-03-21T19:22:24.842Z,52.10
2023-03-21T19:43:56.604Z,46.50
2023-03-21T19:47:49.522Z,48.70
2023-03-21T20:14:19.503Z,44.00
2023-03-21T20:33:17.391Z,46.00
2023-03-21T20:36:53.467Z,48.20
2023-03-21T20:40:37.255Z,47.70
2023-03-21T20:48:27.698Z,46.80
2023-03-21T20:59:41.119Z,48.80
2023-03-21T21:03:19.432Z,50.70
2023-03-21T21:18:27.315Z,52.80
2023-03-21T21:22:08.789Z,60.20
2023-03-21T21:25:49.418Z,52.40
2023-03-21T21:29:23.717Z,52.30
2023-03-21T21:51:25.432Z,56.90
2023-03-21T21:54:53.383Z,54.30
2023-03-21T22:14:05.541Z,52.30
2023-03-21T22:17:35.692Z,55.00
2023-03-21T22:21:05.495Z,52.70
2023-03-21T22:53:58.006Z,52.20
2023-03-21T22:57:29.678Z,52.60
2023-03-21T23:01:05.022Z,54.40
2023-03-21T23:04:37.995Z,58.60
2023-03-21T23:16:16.303Z,52.20
2023-03-21T23:19:56.513Z,56.80
2023-03-21T23:23:29.805Z,59.40
2023-03-21T23:27:14.013Z,59.90
2023-03-21T23:49:29.009Z,56.90
2023-03-21T23:53:14.159Z,58.30
2023-03-21T23:56:36.348Z,61.40
